Time;durP1;ratioP1;P1;durP2;ratioP2;P2;SDS_P1;SDS_P2;PMS_P1;PMS_P2;Temp;Humidity;BMP_temperature;BMP_pressure;BME280_temperature;BME280_humidity;BME280_pressure;Samples;Min_cycle;Max_cycle;Signal;HPM_P1;HPM_P2
2024/02/20 00:00:12;;;;;;;8.30;1.53;;;7.20;99.90;;;;;;5007000;28;20211;-91
2024/02/20 00:02:42;;;;;;;7.47;0.67;;;7.40;99.90;;;;;;4975284;28;20207;-91
2024/02/20 00:05:09;;;;;;;3.40;2.00;;;7.40;99.90;;;;;;4991893;28;20255;-92
2024/02/20 00:07:35;;;;;;;5.57;1.33;;;7.40;99.90;;;;;;4992360;28;20262;-91
2024/02/20 00:10:01;;;;;;;0.53;0.53;;;7.10;99.90;;;;;;4993000;28;20232;-92
2024/02/20 00:12:28;;;;;;;3.60;2.57;;;7.10;99.90;;;;;;4976557;28;20246;-92
2024/02/20 00:14:53;;;;;;;1.50;1.27;;;7.60;99.90;;;;;;4961763;28;20550;-91
2024/02/20 00:17:20;;;;;;;0.17;0.17;;;7.40;99.90;;;;;;4995319;28;20210;-91
2024/02/20 00:19:45;;;;;;;8.20;1.07;;;7.20;99.90;;;;;;5009190;28;20231;-91
2024/02/20 00:22:11;;;;;;;19.93;1.77;;;7.60;99.90;;;;;;5011692;28;20275;-91
2024/02/20 00:24:37;;;;;;;12.83;0.80;;;7.30;99.90;;;;;;4995532;28;20314;-91
2024/02/20 00:27:03;;;;;;;1.13;0.53;;;7.40;99.90;;;;;;4995027;28;20219;-91
2024/02/20 00:29:29;;;;;;;1.17;1.13;;;7.60;99.90;;;;;;5021997;28;20616;-91
2024/02/20 00:31:54;;;;;;;6.70;1.53;;;7.50;99.90;;;;;;5020858;28;20264;-91
2024/02/20 00:34:20;;;;;;;4.73;2.47;;;7.50;99.90;;;;;;5005380;28;20587;-91
2024/02/20 00:36:46;;;;;;;2.97;1.23;;;7.50;99.90;;;;;;5018110;28;20219;-91
2024/02/20 00:39:14;;;;;;;0.40;0.40;;;7.40;99.90;;;;;;5004592;28;20218;-91
2024/02/20 00:41:39;;;;;;;15.17;0.97;;;7.30;99.90;;;;;;5014381;28;20253;-91
2024/02/20 00:44:05;;;;;;;1.30;0.53;;;7.30;99.90;;;;;;5022188;28;20297;-92
2024/02/20 00:46:31;;;;;;;2.03;0.97;;;7.50;99.90;;;;;;5007299;28;20637;-91
2024/02/20 00:48:58;;;;;;;4.87;1.80;;;7.30;99.90;;;;;;5008433;28;20223;-91
2024/02/20 00:51:24;;;;;;;0.40;0.40;;;7.70;99.90;;;;;;4993755;28;20219;-91
2024/02/20 00:53:50;;;;;;;0.20;0.20;;;7.60;99.90;;;;;;4978822;28;20263;-91
2024/02/20 00:56:16;;;;;;;0.47;0.47;;;7.70;99.90;;;;;;5000730;28;20230;-91
2024/02/20 00:58:45;;;;;;;0.40;0.40;;;7.60;99.90;;;;;;5000938;28;20306;-91
2024/02/20 01:01:14;;;;;;;3.40;2.80;;;7.60;99.90;;;;;;5000750;28;21130;-91
2024/02/20 01:03:42;;;;;;;1.40;0.73;;;7.20;99.90;;;;;;5014821;28;20675;-91
2024/02/20 01:06:09;;;;;;;1.70;1.60;;;7.10;99.90;;;;;;5002851;28;20218;-91
2024/02/20 01:08:36;;;;;;;0.93;0.67;;;7.20;99.90;;;;;;5020799;28;20209;-91
2024/02/20 01:11:05;;;;;;;0.47;0.47;;;7.20;99.90;;;;;;5016974;28;20218;-91
2024/02/20 01:13:31;;;;;;;0.70;0.70;;;7.50;99.90;;;;;;5015679;28;20238;-91
2024/02/20 01:15:58;;;;;;;0.73;0.70;;;7.20;99.90;;;;;;4999427;28;20219;-91
2024/02/20 01:18:25;;;;;;;0.33;0.33;;;7.10;99.90;;;;;;5017445;28;20254;-91
2024/02/20 01:20:51;;;;;;;2.30;2.10;;;7.20;99.90;;;;;;5019681;28;20203;-92
2024/02/20 01:23:17;;;;;;;0.60;0.43;;;7.50;99.90;;;;;;4994952;28;20198;-91
2024/02/20 01:25:44;;;;;;;1.10;1.00;;;7.40;99.90;;;;;;5004189;28;20725;-91
2024/02/20 01:28:11;;;;;;;3.23;1.10;;;7.40;99.90;;;;;;5015839;28;20237;-91
2024/02/20 01:30:37;;;;;;;1.77;1.67;;;7.10;99.90;;;;;;5018210;28;20223;-91
2024/02/20 01:33:03;;;;;;;0.40;0.40;;;7.20;99.90;;;;;;5021193;28;20234;-91
2024/02/20 01:35:29;;;;;;;5.57;1.57;;;7.40;99.90;;;;;;5015036;28;20662;-92
2024/02/20 01:37:58;;;;;;;1.13;1.03;;;7.00;99.90;;;;;;5005775;28;20246;-90
2024/02/20 01:40:24;;;;;;;0.47;0.37;;;7.40;99.90;;;;;;5000323;28;20575;-90
2024/02/20 01:42:57;;;;;;;7.73;1.23;;;7.40;99.90;;;;;;5001819;28;20241;-91
2024/02/20 01:45:24;;;;;;;3.33;1.53;;;7.20;99.90;;;;;;4977080;28;20604;-91
2024/02/20 01:47:50;;;;;;;5.10;1.50;;;7.10;99.90;;;;;;4977595;28;20211;-91
2024/02/20 01:50:16;;;;;;;0.20;0.20;;;7.20;99.90;;;;;;5019278;28;20199;-91
2024/02/20 01:52:43;;;;;;;1.93;0.67;;;7.30;99.90;;;;;;5002931;28;20734;-90
2024/02/20 01:55:11;;;;;;;2.37;2.27;;;7.50;99.90;;;;;;5001589;28;20219;-91
2024/02/20 01:57:38;;;;;;;6.03;1.90;;;7.20;99.90;;;;;;5028210;28;21131;-91
2024/02/20 02:00:07;;;;;;;8.17;1.13;;;7.40;99.90;;;;;;5012472;28;20764;-91
2024/02/20 02:02:33;;;;;;;8.93;1.50;;;7.30;99.90;;;;;;5003831;28;20204;-90
2024/02/20 02:04:59;;;;;;;1.00;1.00;;;7.40;99.90;;;;;;5003556;28;20301;-91
2024/02/20 02:07:28;;;;;;;2.67;0.70;;;7.70;99.90;;;;;;5000126;28;20226;-91
2024/02/20 02:09:54;;;;;;;17.00;1.00;;;7.20;99.90;;;;;;5003330;28;20229;-91
2024/02/20 02:12:20;;;;;;;0.40;0.40;;;7.70;99.90;;;;;;5000896;28;20239;-91
2024/02/20 02:14:46;;;;;;;0.40;0.40;;;7.20;99.90;;;;;;5018161;28;20216;-91
2024/02/20 02:17:12;;;;;;;0.57;0.57;;;7.30;99.90;;;;;;5001589;28;20215;-91
2024/02/20 02:19:38;;;;;;;1.53;0.50;;;7.70;99.90;;;;;;5001283;28;20679;-91
2024/02/20 02:22:05;;;;;;;3.90;0.80;;;7.30;99.90;;;;;;4999683;28;20226;-91
2024/02/20 02:24:31;;;;;;;2.67;1.00;;;7.60;99.90;;;;;;4992673;28;20738;-91
2024/02/20 02:26:56;;;;;;;1.90;1.80;;;7.30;99.90;;;;;;4978114;28;20291;-91
2024/02/20 02:29:22;;;;;;;13.07;1.33;;;7.70;99.90;;;;;;5012282;28;20245;-91
2024/02/20 02:31:48;;;;;;;10.93;1.93;;;7.60;99.90;;;;;;4994947;28;20218;-92
2024/02/20 02:34:14;;;;;;;0.20;0.20;;;7.80;99.90;;;;;;5016160;28;20246;-91
2024/02/20 02:36:39;;;;;;;0.57;0.30;;;7.30;99.90;;;;;;4999512;28;20222;-91
2024/02/20 02:39:07;;;;;;;1.90;1.40;;;7.30;99.90;;;;;;5002014;28;20218;-91
2024/02/20 02:41:33;;;;;;;0.80;0.80;;;7.40;99.90;;;;;;4995819;28;20226;-91
2024/02/20 02:44:00;;;;;;;0.83;0.80;;;7.30;99.90;;;;;;5021791;28;20222;-91
2024/02/20 02:46:26;;;;;;;3.60;2.33;;;7.50;99.90;;;;;;5023145;28;20282;-90
2024/02/20 02:48:51;;;;;;;0.53;0.53;;;7.80;99.90;;;;;;5025125;28;20253;-91
2024/02/20 02:51:17;;;;;;;8.40;1.47;;;7.50;99.90;;;;;;5021387;28;20219;-91
2024/02/20 02:53:43;;;;;;;2.50;1.33;;;7.60;99.90;;;;;;5006951;28;20222;-90
2024/02/20 02:56:11;;;;;;;16.03;1.30;;;7.80;99.90;;;;;;4999353;28;20203;-91
2024/02/20 02:58:37;;;;;;;4.40;0.90;;;7.50;99.90;;;;;;5020222;28;20313;-91
2024/02/20 03:01:09;;;;;;;0.70;0.70;;;7.80;99.90;;;;;;5019425;28;20565;-90
2024/02/20 03:03:39;;;;;;;1.07;0.60;;;7.70;99.90;;;;;;5005706;28;20706;-91
2024/02/20 03:06:08;;;;;;;1.37;1.27;;;7.80;99.90;;;;;;4998194;28;20218;-91
2024/02/20 03:08:44;;;;;;;0.53;0.53;;;7.80;99.90;;;;;;5024266;28;20550;-91
2024/02/20 03:11:11;;;;;;;12.13;3.03;;;7.60;99.90;;;;;;5022927;28;20295;-92
2024/02/20 03:13:37;;;;;;;2.43;1.40;;;7.70;99.90;;;;;;5018779;28;20650;-91
2024/02/20 03:16:05;;;;;;;0.30;0.30;;;8.10;99.90;;;;;;5020570;28;20324;-91
2024/02/20 03:18:32;;;;;;;2.60;1.60;;;8.00;99.90;;;;;;5004082;28;20226;-92
2024/02/20 03:21:02;;;;;;;1.17;1.07;;;7.60;99.90;;;;;;5020185;28;20282;-91
2024/02/20 03:23:30;;;;;;;1.37;1.27;;;7.90;99.90;;;;;;5024863;28;20215;-91
2024/02/20 03:25:57;;;;;;;11.80;1.60;;;7.80;99.90;;;;;;5032279;28;20219;-91
2024/02/20 03:28:23;;;;;;;0.73;0.50;;;8.00;99.90;;;;;;5018585;28;20268;-91
2024/02/20 03:30:51;;;;;;;0.60;0.30;;;7.70;99.90;;;;;;5006227;28;20245;-91
2024/02/20 03:33:18;;;;;;;1.50;0.40;;;7.80;99.90;;;;;;5018030;28;20238;-91
2024/02/20 03:35:45;;;;;;;0.30;0.30;;;7.80;99.90;;;;;;5005110;28;20211;-91
2024/02/20 03:38:11;;;;;;;17.80;2.83;;;8.00;99.90;;;;;;5014199;28;20577;-91
2024/02/20 03:40:37;;;;;;;0.53;0.53;;;7.90;99.90;;;;;;5018625;28;20223;-91
2024/02/20 03:43:03;;;;;;;2.33;1.80;;;7.90;99.90;;;;;;5018895;28;20332;-91
2024/02/20 03:45:30;;;;;;;1.80;1.70;;;8.00;99.90;;;;;;5019682;28;20226;-91
2024/02/20 03:47:56;;;;;;;4.73;1.57;;;7.90;99.90;;;;;;5003608;28;20245;-90
2024/02/20 03:50:22;;;;;;;18.93;2.13;;;7.60;99.90;;;;;;5013976;28;20304;-91
2024/02/20 03:52:48;;;;;;;0.20;0.20;;;7.80;99.90;;;;;;5019872;28;20226;-91
2024/02/20 03:55:14;;;;;;;0.83;0.83;;;7.80;99.90;;;;;;5018696;28;20859;-91
2024/02/20 03:57:40;;;;;;;1.17;1.17;;;8.10;99.90;;;;;;5006641;28;20754;-91
2024/02/20 04:00:11;;;;;;;4.53;2.43;;;7.90;99.90;;;;;;5017279;28;20223;-91
2024/02/20 04:02:41;;;;;;;2.33;0.67;;;7.70;99.90;;;;;;4973967;28;20207;-91
2024/02/20 04:05:13;;;;;;;0.30;0.30;;;7.90;99.90;;;;;;5012247;28;20679;-91
2024/02/20 04:07:39;;;;;;;1.13;0.30;;;8.20;99.90;;;;;;5014033;28;20226;-91
2024/02/20 04:10:13;;;;;;;2.03;0.23;;;7.90;99.90;;;;;;5014005;28;20225;-91
2024/02/20 04:12:39;;;;;;;0.30;0.30;;;8.00;99.90;;;;;;4999216;28;20234;-91
2024/02/20 04:15:06;;;;;;;1.53;0.80;;;8.10;99.90;;;;;;5004965;28;20264;-91
2024/02/20 04:17:32;;;;;;;4.17;0.77;;;8.00;99.90;;;;;;5007407;28;20688;-91
2024/02/20 04:20:01;;;;;;;0.37;0.37;;;8.00;99.90;;;;;;5002420;28;20285;-91
2024/02/20 04:22:26;;;;;;;7.60;1.10;;;8.00;99.90;;;;;;5019665;28;20700;-91
2024/02/20 04:24:52;;;;;;;7.70;0.93;;;8.30;99.90;;;;;;5019718;28;20313;-91
2024/02/20 04:27:18;;;;;;;4.23;0.87;;;8.30;99.90;;;;;;5014507;28;20317;-91
2024/02/20 04:29:44;;;;;;;0.53;0.53;;;8.20;99.90;;;;;;5014453;28;20571;-91
2024/02/20 04:32:09;;;;;;;9.07;1.20;;;8.30;99.90;;;;;;5015960;28;20711;-91
2024/02/20 04:34:35;;;;;;;8.33;1.17;;;8.20;99.90;;;;;;5015348;28;20222;-90
2024/02/20 04:37:01;;;;;;;1.30;1.20;;;8.50;99.90;;;;;;5018823;28;20223;-90
2024/02/20 04:39:26;;;;;;;4.60;0.87;;;8.40;99.90;;;;;;5008246;28;20231;-91
2024/02/20 04:41:53;;;;;;;4.53;0.70;;;8.30;99.90;;;;;;5005428;28;20655;-92
2024/02/20 04:44:19;;;;;;;1.83;1.70;;;8.40;99.90;;;;;;5005160;28;20236;-91
2024/02/20 04:46:45;;;;;;;0.40;0.40;;;8.50;99.90;;;;;;4986125;28;20648;-91
2024/02/20 04:49:11;;;;;;;0.23;0.23;;;8.10;99.90;;;;;;5004369;28;20710;-91
2024/02/20 04:51:36;;;;;;;5.13;2.33;;;8.40;99.90;;;;;;4999037;28;20278;-91
2024/02/20 04:54:02;;;;;;;1.23;1.23;;;8.50;99.90;;;;;;4997667;28;20262;-91
2024/02/20 04:56:28;;;;;;;0.57;0.43;;;8.50;99.90;;;;;;4996773;28;20208;-90
2024/02/20 04:58:54;;;;;;;0.20;0.20;;;8.20;99.90;;;;;;4996228;28;20215;-91
2024/02/20 05:01:19;;;;;;;1.90;1.43;;;8.50;99.90;;;;;;4996842;28;20227;-91
2024/02/20 05:03:49;;;;;;;2.97;0.47;;;8.40;99.90;;;;;;4982569;28;20258;-91
2024/02/20 05:06:15;;;;;;;0.67;0.67;;;8.40;99.90;;;;;;4994914;28;20227;-90
2024/02/20 05:08:41;;;;;;;0.50;0.50;;;8.50;99.90;;;;;;4997809;28;20241;-91
2024/02/20 05:11:07;;;;;;;0.83;0.83;;;8.30;99.90;;;;;;5016830;28;20698;-91
2024/02/20 05:13:33;;;;;;;2.53;2.40;;;8.30;99.90;;;;;;5001741;28;20234;-91
2024/02/20 05:16:00;;;;;;;0.83;0.57;;;8.10;99.90;;;;;;5003794;28;20227;-90
2024/02/20 05:18:26;;;;;;;13.03;1.33;;;8.20;99.90;;;;;;5020009;28;20250;-91
2024/02/20 05:20:52;;;;;;;5.43;0.87;;;8.20;99.90;;;;;;4996983;28;20578;-91
2024/02/20 05:23:17;;;;;;;12.50;2.17;;;8.40;99.90;;;;;;5022812;28;20194;-90
2024/02/20 05:25:43;;;;;;;6.70;0.70;;;8.10;99.90;;;;;;5019801;28;20231;-91
2024/02/20 05:28:09;;;;;;;0.63;0.63;;;8.30;99.90;;;;;;5003965;28;20324;-90
2024/02/20 05:30:38;;;;;;;3.07;1.70;;;8.40;99.90;;;;;;5016559;28;20309;-90
2024/02/20 05:33:04;;;;;;;8.63;1.13;;;8.50;99.90;;;;;;5019813;28;20234;-90
2024/02/20 05:35:31;;;;;;;2.60;1.73;;;8.20;99.90;;;;;;5012242;28;20205;-90
2024/02/20 05:37:58;;;;;;;1.13;1.07;;;8.50;99.90;;;;;;5001597;28;20230;-90
2024/02/20 05:40:24;;;;;;;3.30;1.47;;;8.20;99.90;;;;;;5011092;28;20304;-90
2024/02/20 05:42:50;;;;;;;5.87;2.43;;;8.20;99.90;;;;;;5017251;28;20238;-90
2024/02/20 05:45:19;;;;;;;1.23;0.40;;;8.30;99.90;;;;;;4995920;28;20253;-90
2024/02/20 05:47:45;;;;;;;1.17;1.17;;;8.40;99.90;;;;;;5003362;28;20210;-90
2024/02/20 05:50:11;;;;;;;6.00;1.33;;;8.30;99.90;;;;;;5001115;28;20289;-90
2024/02/20 05:52:40;;;;;;;3.07;2.17;;;8.20;99.90;;;;;;4997310;28;20767;-90
2024/02/20 05:55:07;;;;;;;1.97;1.80;;;8.60;99.90;;;;;;5016023;28;20226;-90
2024/02/20 05:57:33;;;;;;;7.70;0.83;;;8.30;99.90;;;;;;5018352;28;20364;-90
2024/02/20 05:59:59;;;;;;;0.77;0.57;;;8.50;99.90;;;;;;5003983;28;20211;-91
2024/02/20 06:02:25;;;;;;;1.13;1.13;;;8.40;99.90;;;;;;5011964;28;20206;-90
2024/02/20 06:04:51;;;;;;;2.30;1.80;;;8.20;99.90;;;;;;5019921;28;20367;-91
2024/02/20 06:07:20;;;;;;;0.73;0.73;;;8.30;99.90;;;;;;5020249;28;20306;-91
2024/02/20 06:09:46;;;;;;;1.03;0.50;;;8.20;99.90;;;;;;5011167;28;20592;-91
2024/02/20 06:12:12;;;;;;;13.20;2.33;;;8.60;99.90;;;;;;5003839;28;20226;-91
2024/02/20 06:14:43;;;;;;;1.10;1.10;;;8.50;99.90;;;;;;4995580;28;20301;-90
2024/02/20 06:17:09;;;;;;;14.10;2.07;;;8.20;99.90;;;;;;5010764;28;20226;-91
2024/02/20 06:19:35;;;;;;;7.73;1.40;;;8.20;99.90;;;;;;4995191;28;20327;-90
2024/02/20 06:22:01;;;;;;;6.17;1.60;;;8.40;99.90;;;;;;5014100;28;20241;-90
2024/02/20 06:24:26;;;;;;;9.10;0.90;;;8.50;99.90;;;;;;5020627;28;20768;-91
2024/02/20 06:26:52;;;;;;;1.73;0.80;;;8.50;99.90;;;;;;5019621;28;20293;-91
2024/02/20 06:29:18;;;;;;;12.70;1.30;;;8.30;99.90;;;;;;5011434;28;20262;-90
2024/02/20 06:31:44;;;;;;;1.43;1.33;;;8.50;99.90;;;;;;5016008;28;20240;-90
2024/02/20 06:34:09;;;;;;;2.87;1.50;;;8.30;99.90;;;;;;5001646;28;20227;-91
2024/02/20 06:36:36;;;;;;;0.40;0.40;;;8.30;99.90;;;;;;5002076;28;20227;-89
2024/02/20 06:39:03;;;;;;;15.37;0.87;;;8.20;99.90;;;;;;5001382;28;20195;-90
2024/02/20 06:41:29;;;;;;;3.83;0.87;;;8.30;99.90;;;;;;4995994;28;20206;-90
2024/02/20 06:43:55;;;;;;;3.50;1.70;;;8.20;99.90;;;;;;5002771;28;20773;-90
2024/02/20 06:46:23;;;;;;;3.70;1.73;;;8.30;99.90;;;;;;5014562;28;20313;-90
2024/02/20 06:48:49;;;;;;;0.90;0.90;;;8.30;99.90;;;;;;5001749;28;20226;-90
2024/02/20 06:51:14;;;;;;;4.37;2.20;;;8.20;99.90;;;;;;5001566;28;20226;-91
2024/02/20 06:53:40;;;;;;;14.97;2.70;;;8.30;99.90;;;;;;5003228;28;20650;-90
2024/02/20 06:56:06;;;;;;;0.80;0.80;;;8.50;99.90;;;;;;4994361;28;20293;-91
2024/02/20 06:58:32;;;;;;;4.10;1.77;;;8.60;99.90;;;;;;5001021;28;20258;-91
2024/02/20 07:00:58;;;;;;;1.23;0.53;;;8.50;99.90;;;;;;5000490;28;20226;-91
2024/02/20 07:03:24;;;;;;;5.70;1.13;;;8.30;99.90;;;;;;5018283;28;20254;-91
2024/02/20 07:05:49;;;;;;;0.93;0.93;;;8.40;99.90;;;;;;5021604;28;20558;-93
2024/02/20 07:08:19;;;;;;;17.43;1.20;;;8.30;99.90;;;;;;5036938;28;20584;-90
2024/02/20 07:10:45;;;;;;;3.90;3.40;;;8.40;99.90;;;;;;5026455;28;20226;-91
2024/02/20 07:13:11;;;;;;;5.80;0.80;;;8.40;99.90;;;;;;5008438;28;20264;-92
2024/02/20 07:15:38;;;;;;;3.30;2.63;;;8.30;99.90;;;;;;5006845;28;20234;-92
2024/02/20 07:18:04;;;;;;;17.30;2.63;;;8.30;99.90;;;;;;5006995;28;20218;-94
2024/02/20 07:20:30;;;;;;;1.10;1.10;;;8.70;99.90;;;;;;4990801;28;20217;-95
2024/02/20 07:22:56;;;;;;;5.00;1.07;;;8.70;99.90;;;;;;5023033;28;20235;-92
2024/02/20 07:25:22;;;;;;;6.83;1.90;;;8.50;99.90;;;;;;5008056;28;20599;-92
2024/02/20 07:27:51;;;;;;;0.60;0.60;;;8.60;99.90;;;;;;5014369;28;20243;-91
2024/02/20 07:30:17;;;;;;;4.73;1.30;;;8.60;99.90;;;;;;4991483;28;20232;-92
2024/02/20 07:32:43;;;;;;;2.17;1.80;;;8.40;99.90;;;;;;4973719;28;20227;-91
2024/02/20 07:35:10;;;;;;;1.37;1.13;;;8.40;99.90;;;;;;4976949;28;20269;-91
2024/02/20 07:37:37;;;;;;;7.73;0.93;;;8.70;99.90;;;;;;5007499;28;20215;-91
2024/02/20 07:40:03;;;;;;;8.90;1.80;;;8.50;99.90;;;;;;4992079;28;20223;-90
2024/02/20 07:42:29;;;;;;;7.43;1.80;;;8.50;99.90;;;;;;4984077;28;20907;-91
2024/02/20 07:44:55;;;;;;;2.33;0.87;;;8.50;99.90;;;;;;4969760;28;20203;-90
2024/02/20 07:47:24;;;;;;;5.43;1.17;;;8.70;99.90;;;;;;5003398;28;20682;-92
2024/02/20 07:49:53;;;;;;;2.63;0.90;;;8.60;99.90;;;;;;4979325;28;20219;-93
2024/02/20 07:52:19;;;;;;;1.90;1.80;;;8.70;99.90;;;;;;5011524;28;20239;-92
2024/02/20 07:54:45;;;;;;;1.70;1.17;;;8.60;99.90;;;;;;4993317;28;20218;-92
2024/02/20 07:57:11;;;;;;;8.13;0.40;;;8.60;99.90;;;;;;4995047;28;20254;-91
2024/02/20 07:59:36;;;;;;;3.90;2.17;;;8.80;99.90;;;;;;5011685;28;20195;-90
2024/02/20 08:02:07;;;;;;;4.97;1.93;;;8.70;99.90;;;;;;4995989;28;20285;-91
2024/02/20 08:04:33;;;;;;;1.67;1.57;;;8.80;99.90;;;;;;5009289;28;20245;-91
2024/02/20 08:06:59;;;;;;;1.70;0.70;;;8.70;99.90;;;;;;4987226;28;20602;-91
2024/02/20 08:09:25;;;;;;;3.20;1.97;;;9.00;99.90;;;;;;4997695;28;20302;-92
2024/02/20 08:11:51;;;;;;;14.50;2.37;;;8.90;99.90;;;;;;5011634;28;20200;-90
2024/02/20 08:14:19;;;;;;;15.50;1.67;;;8.80;99.90;;;;;;5012576;28;20195;-90
2024/02/20 08:16:48;;;;;;;1.10;0.83;;;9.00;99.90;;;;;;5000392;28;20720;-91
2024/02/20 08:19:15;;;;;;;2.20;2.00;;;9.00;99.90;;;;;;4984481;28;20250;-92
2024/02/20 08:21:41;;;;;;;2.73;0.90;;;9.30;99.90;;;;;;4999430;28;20238;-92
2024/02/20 08:24:06;;;;;;;1.57;1.10;;;9.00;99.90;;;;;;4991249;28;20303;-90
2024/02/20 08:26:33;;;;;;;3.17;0.97;;;9.20;99.90;;;;;;4991910;28;20211;-91
2024/02/20 08:28:59;;;;;;;15.67;1.77;;;9.20;99.90;;;;;;4977954;28;20263;-91
2024/02/20 08:31:25;;;;;;;4.73;2.13;;;9.20;99.90;;;;;;4990888;28;20270;-91
2024/02/20 08:33:54;;;;;;;5.97;1.53;;;9.40;99.90;;;;;;4969251;28;20231;-92
2024/02/20 08:36:20;;;;;;;5.53;1.27;;;9.40;99.90;;;;;;5011634;28;20752;-92
2024/02/20 08:38:47;;;;;;;4.87;2.37;;;9.50;99.90;;;;;;4996197;28;20239;-91
2024/02/20 08:41:13;;;;;;;3.63;1.50;;;9.50;99.90;;;;;;5013208;28;20211;-91
2024/02/20 08:43:39;;;;;;;1.20;1.00;;;9.50;99.90;;;;;;5012504;28;20238;-92
2024/02/20 08:46:06;;;;;;;6.80;2.20;;;9.50;99.90;;;;;;5012115;28;20227;-91
2024/02/20 08:48:32;;;;;;;5.53;4.80;;;9.40;99.90;;;;;;4995215;28;20242;-91
2024/02/20 08:50:58;;;;;;;4.47;2.70;;;9.50;99.90;;;;;;5010212;28;20202;-91
2024/02/20 08:53:24;;;;;;;4.23;1.03;;;9.40;99.90;;;;;;4980154;28;20684;-91
2024/02/20 08:55:50;;;;;;;10.27;1.03;;;9.40;99.90;;;;;;4984718;28;20219;-93
2024/02/20 08:58:17;;;;;;;2.47;2.33;;;9.70;99.90;;;;;;5006383;28;20226;-93
2024/02/20 09:00:46;;;;;;;3.70;1.60;;;9.50;99.90;;;;;;5012342;28;20622;-94
2024/02/20 09:03:12;;;;;;;1.13;1.13;;;9.40;99.90;;;;;;4995649;28;20219;-95
2024/02/20 09:05:38;;;;;;;29.43;2.43;;;9.50;99.90;;;;;;4998843;28;20258;-91
2024/02/20 09:08:06;;;;;;;1.70;1.53;;;9.40;99.90;;;;;;5014232;28;20241;-93
2024/02/20 09:10:33;;;;;;;3.37;0.90;;;9.60;99.90;;;;;;5014611;28;20285;-93
2024/02/20 09:12:59;;;;;;;9.07;4.60;;;9.60;99.90;;;;;;5010890;28;20539;-93
2024/02/20 09:15:25;;;;;;;3.37;2.07;;;9.70;99.90;;;;;;4994050;28;20443;-94
2024/02/20 09:17:51;;;;;;;1.07;1.07;;;9.70;99.90;;;;;;5007217;28;20686;-93
2024/02/20 09:20:17;;;;;;;17.97;1.97;;;9.80;99.90;;;;;;5014940;28;20247;-95
2024/02/20 09:22:43;;;;;;;1.67;1.57;;;9.80;99.90;;;;;;5012624;28;20306;-93
2024/02/20 09:25:09;;;;;;;13.53;2.43;;;10.00;99.90;;;;;;5011289;28;20692;-92
2024/02/20 09:27:41;;;;;;;2.33;2.13;;;10.10;99.90;;;;;;5006884;28;20223;-93
2024/02/20 09:30:07;;;;;;;0.97;0.93;;;10.00;99.90;;;;;;5020272;28;20305;-92
2024/02/20 09:32:37;;;;;;;3.60;2.00;;;9.90;99.90;;;;;;4996676;28;20225;-93
2024/02/20 09:35:03;;;;;;;7.87;1.80;;;10.00;99.90;;;;;;4996046;28;20728;-93
2024/02/20 09:37:29;;;;;;;2.07;1.80;;;10.20;99.90;;;;;;4996940;28;21011;-93
2024/02/20 09:39:56;;;;;;;18.23;2.33;;;10.00;99.90;;;;;;5015609;28;20246;-92
2024/02/20 09:42:27;;;;;;;4.33;1.90;;;10.00;99.90;;;;;;5015597;28;20234;-92
2024/02/20 09:44:55;;;;;;;3.93;1.47;;;10.00;99.90;;;;;;5019752;28;20210;-92
2024/02/20 09:47:24;;;;;;;1.93;1.83;;;10.00;99.90;;;;;;5001008;28;20269;-92
2024/02/20 09:49:54;;;;;;;1.47;1.10;;;10.20;99.90;;;;;;5017495;28;20231;-91
2024/02/20 09:52:21;;;;;;;3.23;1.50;;;10.10;99.90;;;;;;5017936;28;20626;-92
2024/02/20 09:54:51;;;;;;;7.87;1.63;;;10.30;99.90;;;;;;4998491;28;20218;-93
2024/02/20 09:57:17;;;;;;;5.07;2.33;;;10.30;99.90;;;;;;5014423;28;20218;-92
2024/02/20 09:59:46;;;;;;;7.20;2.23;;;10.40;99.90;;;;;;4982223;28;20713;-94
2024/02/20 10:02:20;;;;;;;7.07;1.80;;;10.40;99.90;;;;;;5001712;28;20270;-92
2024/02/20 10:04:46;;;;;;;5.40;3.20;;;10.60;99.90;;;;;;5023283;28;20214;-92
2024/02/20 10:07:14;;;;;;;5.33;1.87;;;10.30;99.90;;;;;;5019474;28;21037;-93
2024/02/20 10:09:40;;;;;;;5.73;2.13;;;10.40;99.90;;;;;;5012562;28;20642;-93
2024/02/20 10:12:21;;;;;;;2.40;1.80;;;10.50;99.90;;;;;;5010730;28;20219;-93
2024/02/20 10:14:47;;;;;;;3.60;1.90;;;10.70;99.90;;;;;;5007907;28;20202;-93
2024/02/20 10:17:17;;;;;;;11.30;2.13;;;10.70;99.90;;;;;;5020525;28;20208;-90
2024/02/20 10:19:43;;;;;;;10.10;1.70;;;10.80;99.90;;;;;;5011531;28;20218;-93
2024/02/20 10:22:23;;;;;;;11.90;3.67;;;10.70;99.90;;;;;;4989359;28;21050;-92
2024/02/20 10:25:01;;;;;;;10.07;3.07;;;10.90;99.90;;;;;;5001038;28;20222;-93
2024/02/20 10:27:27;;;;;;;9.63;2.47;;;10.90;99.90;;;;;;5010817;28;20210;-93
2024/02/20 10:29:53;;;;;;;1.87;1.37;;;10.80;99.90;;;;;;4995201;28;20199;-92
2024/02/20 10:32:22;;;;;;;17.57;2.37;;;10.80;99.90;;;;;;4996254;28;20232;-93
2024/02/20 10:34:58;;;;;;;1.77;1.23;;;10.90;99.90;;;;;;4994705;28;20226;-91
2024/02/20 10:37:27;;;;;;;9.90;3.00;;;10.90;99.90;;;;;;4992669;28;20221;-90
2024/02/20 10:40:15;;;;;;;2.00;1.70;;;10.90;99.90;;;;;;4999155;28;20215;-92
2024/02/20 10:42:41;;;;;;;4.23;2.10;;;11.10;99.90;;;;;;5003230;28;20222;-92
2024/02/20 10:45:11;;;;;;;2.00;1.90;;;11.10;99.90;;;;;;5000056;28;20231;-92
2024/02/20 10:47:45;;;;;;;8.80;1.70;;;10.90;99.90;;;;;;5025799;28;20203;-93
2024/02/20 10:50:13;;;;;;;19.77;2.30;;;10.90;99.90;;;;;;5026345;28;20221;-92
2024/02/20 10:52:39;;;;;;;10.37;2.77;;;10.90;99.90;;;;;;5009881;28;20729;-91
2024/02/20 10:55:07;;;;;;;2.83;1.63;;;10.80;99.90;;;;;;4993934;28;20221;-91
2024/02/20 10:57:37;;;;;;;1.63;1.17;;;10.70;99.90;;;;;;5013550;28;20749;-93
2024/02/20 11:00:08;;;;;;;7.50;3.37;;;10.90;99.90;;;;;;5018384;28;20215;-93
2024/02/20 11:02:38;;;;;;;6.57;1.73;;;11.00;99.90;;;;;;5017902;28;20232;-92
2024/02/20 11:05:12;;;;;;;1.17;1.00;;;10.90;99.90;;;;;;5038031;28;20309;-92
2024/02/20 11:07:39;;;;;;;3.93;1.13;;;10.90;99.90;;;;;;5021120;28;20296;-93
2024/02/20 11:10:07;;;;;;;8.50;2.20;;;10.80;99.90;;;;;;5009051;28;20707;-93
2024/02/20 11:12:34;;;;;;;0.73;0.73;;;11.00;99.90;;;;;;5004948;28;20231;-92
2024/02/20 11:15:22;;;;;;;7.83;1.30;;;11.10;99.90;;;;;;5001026;28;20194;-93
2024/02/20 11:17:50;;;;;;;7.63;2.57;;;11.20;99.90;;;;;;5002851;28;20194;-92
2024/02/20 11:20:20;;;;;;;7.37;2.10;;;11.10;99.90;;;;;;5024547;28;20545;-92
2024/02/20 11:22:48;;;;;;;3.93;2.33;;;11.00;99.90;;;;;;5039871;28;20683;-92
2024/02/20 11:25:20;;;;;;;2.67;1.60;;;11.10;99.90;;;;;;5002050;28;20762;-92
2024/02/20 11:27:47;;;;;;;22.93;2.13;;;11.00;99.90;;;;;;5035817;28;20242;-92
2024/02/20 11:30:16;;;;;;;7.67;1.03;;;11.00;99.90;;;;;;4998974;28;20234;-92
2024/02/20 11:32:42;;;;;;;4.10;1.57;;;11.20;99.90;;;;;;5032536;28;20215;-92
2024/02/20 11:35:27;;;;;;;6.07;2.23;;;11.20;99.90;;;;;;5014673;28;20597;-91
2024/02/20 11:37:54;;;;;;;1.67;1.57;;;11.10;99.90;;;;;;5023843;28;20226;-91
2024/02/20 11:40:26;;;;;;;10.60;1.77;;;11.20;99.90;;;;;;5016175;28;20219;-92
2024/02/20 11:42:56;;;;;;;4.50;2.23;;;11.30;99.90;;;;;;5017261;28;20230;-92
2024/02/20 11:45:25;;;;;;;1.20;1.00;;;11.20;99.90;;;;;;5023224;28;20230;-93
2024/02/20 11:48:08;;;;;;;2.30;2.20;;;11.20;99.90;;;;;;5015163;28;20203;-93
2024/02/20 11:50:41;;;;;;;3.97;1.43;;;11.30;99.90;;;;;;5011903;28;20195;-93
2024/02/20 11:53:17;;;;;;;7.17;1.33;;;11.30;99.90;;;;;;5014161;28;20226;-93
2024/02/20 11:55:53;;;;;;;8.23;2.07;;;11.60;99.90;;;;;;5020040;28;20309;-92
2024/02/20 11:58:21;;;;;;;4.47;1.10;;;11.60;99.90;;;;;;5019761;28;20245;-92
2024/02/20 12:01:02;;;;;;;9.07;1.43;;;11.70;99.90;;;;;;5003081;28;20253;-93
2024/02/20 12:03:32;;;;;;;7.23;1.50;;;11.60;99.90;;;;;;5015169;28;20222;-94
2024/02/20 12:06:08;;;;;;;4.40;0.93;;;11.70;99.90;;;;;;5018710;28;20206;-93
2024/02/20 12:09:30;;;;;;;1.90;1.80;;;11.60;99.90;;;;;;4997361;28;20555;-93
2024/02/20 12:11:56;;;;;;;4.37;1.33;;;11.60;99.90;;;;;;4959879;28;20277;-93
2024/02/20 12:14:23;;;;;;;7.90;1.80;;;11.40;99.90;;;;;;4981694;28;20208;-92
2024/02/20 12:16:58;;;;;;;3.70;2.50;;;11.50;99.90;;;;;;4985658;28;20257;-92
2024/02/20 12:19:24;;;;;;;6.80;1.47;;;11.40;99.90;;;;;;5018557;28;20222;-92
2024/02/20 12:21:53;;;;;;;6.83;0.77;;;11.40;99.90;;;;;;5000545;28;20619;-93
2024/02/20 12:24:22;;;;;;;6.87;4.20;;;11.50;99.90;;;;;;5015999;28;20230;-93
2024/02/20 12:26:50;;;;;;;7.00;1.13;;;11.50;99.90;;;;;;5012412;28;20199;-93
2024/02/20 12:29:16;;;;;;;0.43;0.43;;;11.50;99.90;;;;;;5012745;28;20665;-92
2024/02/20 12:31:53;;;;;;;10.57;2.20;;;11.30;99.90;;;;;;4984304;28;20315;-93
2024/02/20 12:34:22;;;;;;;4.13;2.20;;;11.30;99.90;;;;;;4988914;28;20237;-93
2024/02/20 12:36:49;;;;;;;1.03;0.60;;;11.20;99.90;;;;;;5010440;28;20806;-93
2024/02/20 12:39:15;;;;;;;6.13;2.10;;;11.20;99.90;;;;;;5011117;28;20223;-95
2024/02/20 12:41:41;;;;;;;4.93;1.87;;;11.20;99.90;;;;;;4995461;28;20622;-94
2024/02/20 12:44:07;;;;;;;2.73;1.57;;;11.20;99.90;;;;;;4986038;28;20252;-93
2024/02/20 12:46:37;;;;;;;1.17;0.60;;;11.20;99.90;;;;;;4977197;28;20232;-94
2024/02/20 12:49:03;;;;;;;2.97;0.97;;;11.10;99.90;;;;;;4980262;28;20266;-94
2024/02/20 12:51:29;;;;;;;4.63;1.90;;;11.20;99.90;;;;;;4975402;28;20216;-94
2024/02/20 12:53:55;;;;;;;2.77;1.67;;;11.30;99.90;;;;;;4993279;28;20288;-94